createdAt,value
2023-01-27T00:00:54.104Z,97.60
2023-01-27T00:03:24.632Z,96.90
2023-01-27T00:05:51.784Z,98.90
2023-01-27T00:08:19.664Z,98.30
2023-01-27T00:10:46.834Z,96.50
2023-01-27T00:13:27.235Z,96.60
2023-01-27T00:15:54.797Z,97.60
2023-01-27T00:18:23.628Z,97.70
2023-01-27T00:21:09.792Z,97.50
2023-01-27T00:23:56.013Z,97.10
2023-01-27T00:26:23.347Z,98.20
2023-01-27T00:28:50.735Z,99.90
2023-01-27T00:31:38.213Z,99.90
2023-01-27T00:34:11.848Z,99.90
2023-01-27T00:36:42.195Z,99.90
2023-01-27T00:39:11.661Z,99.90
2023-01-27T00:41:40.179Z,99.90
2023-01-27T00:44:13.054Z,99.90
2023-01-27T00:46:41.915Z,99.90
2023-01-27T00:49:10.551Z,99.90
2023-01-27T00:51:37.649Z,99.90
2023-01-27T00:54:05.641Z,99.90
2023-01-27T00:56:35.840Z,99.90
2023-01-27T00:59:04.109Z,99.90
2023-01-27T01:01:32.006Z,99.90
2023-01-27T01:03:59.701Z,99.90
2023-01-27T01:06:27.507Z,99.90
2023-01-27T01:08:57.087Z,99.90
2023-01-27T01:11:24.942Z,99.90
2023-01-27T01:13:54.344Z,99.90
2023-01-27T01:16:24.788Z,99.90
2023-01-27T01:18:52.750Z,99.90
2023-01-27T01:21:20.720Z,99.90
2023-01-27T01:23:48.144Z,99.90
2023-01-27T01:26:16.959Z,99.90
2023-01-27T01:28:45.579Z,99.90
2023-01-27T01:31:15.122Z,99.90
2023-01-27T01:33:42.697Z,99.90
2023-01-27T01:36:12.529Z,99.90
2023-01-27T01:38:40.407Z,99.90
2023-01-27T01:41:10.815Z,99.90
2023-01-27T01:43:38.092Z,99.90
2023-01-27T01:46:08.114Z,99.90
2023-01-27T01:49:01.398Z,99.90
2023-01-27T01:51:39.554Z,99.90
2023-01-27T01:54:13.666Z,99.90
2023-01-27T01:56:57.439Z,99.90
2023-01-27T01:59:38.984Z,99.90
2023-01-27T02:02:12.206Z,99.90
2023-01-27T02:04:46.570Z,99.90
2023-01-27T02:07:27.484Z,99.90
2023-01-27T02:09:56.671Z,99.90
2023-01-27T02:12:23.634Z,99.90
2023-01-27T02:14:50.941Z,99.90
2023-01-27T02:17:18.171Z,99.90
2023-01-27T02:19:52.010Z,99.90
2023-01-27T02:22:30.255Z,99.90
2023-01-27T02:25:07.108Z,99.90
2023-01-27T02:27:34.228Z,99.90
2023-01-27T02:30:01.518Z,99.90
2023-01-27T02:32:28.696Z,99.90
2023-01-27T02:34:56.983Z,99.90
2023-01-27T02:37:24.930Z,99.90
2023-01-27T02:39:56.770Z,99.90
2023-01-27T02:42:24.140Z,99.90
2023-01-27T02:44:51.539Z,99.90
2023-01-27T02:47:18.747Z,99.90
2023-01-27T02:49:46.104Z,99.90
2023-01-27T02:52:13.344Z,99.90
2023-01-27T02:54:41.028Z,99.90
2023-01-27T02:57:08.385Z,99.90
2023-01-27T02:59:46.527Z,99.90
2023-01-27T03:02:14.850Z,99.90
2023-01-27T03:04:42.389Z,99.90
2023-01-27T03:07:09.444Z,99.90
2023-01-27T03:09:36.740Z,99.90
2023-01-27T03:12:22.134Z,99.90
2023-01-27T03:15:09.680Z,99.90
2023-01-27T03:17:56.721Z,99.90
2023-01-27T03:20:24.686Z,99.90
2023-01-27T03:22:51.941Z,99.90
2023-01-27T03:25:22.168Z,99.90
2023-01-27T03:27:49.218Z,99.90
2023-01-27T03:30:37.061Z,99.90
2023-01-27T03:33:24.490Z,99.90
2023-01-27T03:36:23.350Z,99.90
2023-01-27T03:39:10.559Z,99.90
2023-01-27T03:41:56.575Z,99.90
2023-01-27T03:44:45.179Z,99.90
2023-01-27T03:47:12.534Z,99.90
2023-01-27T03:49:39.518Z,99.90
2023-01-27T03:52:06.864Z,99.90
2023-01-27T03:54:34.089Z,99.90
2023-01-27T03:57:06.497Z,99.90
2023-01-27T03:59:35.200Z,99.90
2023-01-27T04:02:21.071Z,99.90
2023-01-27T04:05:06.892Z,99.90
2023-01-27T04:07:37.575Z,99.90
2023-01-27T04:10:05.990Z,99.90
2023-01-27T04:12:33.513Z,99.90
2023-01-27T04:15:00.556Z,99.90
2023-01-27T04:17:27.907Z,99.90
2023-01-27T04:19:54.962Z,99.90
2023-01-27T04:22:22.192Z,99.90
2023-01-27T04:24:50.198Z,99.90
2023-01-27T04:27:18.941Z,99.90
2023-01-27T04:29:45.961Z,99.90
2023-01-27T04:32:13.974Z,99.90
2023-01-27T04:34:41.395Z,99.90
2023-01-27T04:37:09.737Z,99.90
2023-01-27T04:39:36.801Z,99.90
2023-01-27T04:42:04.323Z,99.90
2023-01-27T04:44:31.476Z,99.90
2023-01-27T04:46:59.037Z,99.90
2023-01-27T04:49:29.032Z,99.90
2023-01-27T04:51:56.333Z,99.90
2023-01-27T04:54:24.518Z,99.90
2023-01-27T04:57:01.450Z,99.90
2023-01-27T04:59:28.715Z,99.90
2023-01-27T05:01:56.303Z,99.90
2023-01-27T05:04:23.508Z,99.90
2023-01-27T05:06:50.770Z,99.90
2023-01-27T05:09:18.863Z,99.90
2023-01-27T05:11:46.104Z,99.90
2023-01-27T05:14:14.101Z,99.90
2023-01-27T05:16:41.493Z,99.90
2023-01-27T05:19:09.052Z,99.90
2023-01-27T05:21:36.422Z,99.90
2023-01-27T05:24:03.596Z,99.90
2023-01-27T05:26:30.952Z,99.90
2023-01-27T05:28:58.734Z,99.90
2023-01-27T05:31:28.992Z,99.90
2023-01-27T05:33:58.119Z,99.90
2023-01-27T05:36:26.543Z,99.90
2023-01-27T05:38:54.965Z,99.90
2023-01-27T05:41:23.109Z,99.90
2023-01-27T05:43:55.873Z,99.90
2023-01-27T05:46:29.313Z,99.90
2023-01-27T05:48:59.923Z,99.90
2023-01-27T05:51:34.216Z,99.90
2023-01-27T05:54:01.529Z,99.90
2023-01-27T05:56:28.860Z,99.90
2023-01-27T05:58:57.207Z,99.90
2023-01-27T06:01:30.205Z,99.90
2023-01-27T06:03:57.561Z,99.90
2023-01-27T06:06:26.615Z,99.90
2023-01-27T06:08:53.918Z,99.90
2023-01-27T06:11:22.275Z,99.90
2023-01-27T06:13:49.288Z,99.90
2023-01-27T06:16:18.809Z,99.90
2023-01-27T06:18:46.964Z,99.90
2023-01-27T06:21:16.006Z,99.90
2023-01-27T06:23:43.254Z,99.90
2023-01-27T06:26:13.054Z,99.90
2023-01-27T06:28:40.692Z,99.90
2023-01-27T06:31:20.122Z,99.90
2023-01-27T06:33:47.785Z,99.90
2023-01-27T06:36:17.712Z,99.90
2023-01-27T06:38:45.762Z,99.90
2023-01-27T06:41:13.255Z,99.90
2023-01-27T06:43:40.536Z,99.90
2023-01-27T06:46:08.292Z,99.90
2023-01-27T06:48:35.651Z,99.90
2023-01-27T06:51:02.903Z,99.90
2023-01-27T06:53:31.380Z,99.90
2023-01-27T06:56:00.966Z,99.90
2023-01-27T06:58:28.786Z,99.90
2023-01-27T07:00:56.631Z,99.90
2023-01-27T07:03:23.850Z,99.90
2023-01-27T07:05:52.681Z,99.90
2023-01-27T07:08:19.713Z,99.90
2023-01-27T07:10:47.126Z,99.90
2023-01-27T07:13:15.279Z,99.90
2023-01-27T07:15:42.725Z,99.90
2023-01-27T07:18:11.655Z,99.90
2023-01-27T07:20:39.353Z,99.90
2023-01-27T07:23:07.441Z,99.90
2023-01-27T07:25:35.345Z,99.90
2023-01-27T07:28:03.653Z,99.90
2023-01-27T07:30:32.158Z,99.90
2023-01-27T07:33:07.276Z,99.90
2023-01-27T07:35:36.719Z,99.90
2023-01-27T07:38:04.724Z,99.90
2023-01-27T07:40:32.068Z,99.90
2023-01-27T07:43:00.492Z,99.90
2023-01-27T07:45:29.448Z,99.90
2023-01-27T07:48:05.685Z,99.90
2023-01-27T07:50:33.450Z,99.90
2023-01-27T07:53:02.005Z,99.90
2023-01-27T07:55:30.078Z,99.90
2023-01-27T07:57:57.713Z,99.90
2023-01-27T08:00:25.394Z,99.90
2023-01-27T08:02:54.165Z,99.90
2023-01-27T08:05:22.992Z,99.90
2023-01-27T08:07:50.739Z,99.90
2023-01-27T08:10:18.902Z,94.00
2023-01-27T08:12:46.173Z,91.50
2023-01-27T08:15:16.031Z,89.10
2023-01-27T08:17:44.112Z,85.90
2023-01-27T08:20:11.937Z,85.80
2023-01-27T08:22:39.441Z,77.70
2023-01-27T08:25:06.886Z,80.10
2023-01-27T08:27:34.139Z,74.40
2023-01-27T08:30:05.509Z,71.70
2023-01-27T08:32:34.557Z,68.90
2023-01-27T08:35:01.584Z,63.00
2023-01-27T08:37:28.862Z,61.80
2023-01-27T08:39:55.870Z,64.60
2023-01-27T08:42:24.365Z,66.50
2023-01-27T08:44:51.304Z,49.60
2023-01-27T08:47:18.913Z,47.90
2023-01-27T08:49:46.276Z,36.30
2023-01-27T08:52:14.005Z,38.40
2023-01-27T08:54:41.000Z,38.10
2023-01-27T08:57:08.461Z,39.10
2023-01-27T08:59:37.486Z,59.10
2023-01-27T09:02:04.734Z,64.10
2023-01-27T09:04:31.829Z,52.50
2023-01-27T09:06:59.191Z,47.60
2023-01-27T09:09:27.659Z,36.80
2023-01-27T09:11:55.066Z,44.70
2023-01-27T09:14:22.338Z,28.40
2023-01-27T09:16:49.683Z,26.10
2023-01-27T09:19:16.791Z,14.20
2023-01-27T09:21:44.164Z,16.10
2023-01-27T09:24:13.422Z,14.80
2023-01-27T09:26:40.775Z,27.40
2023-01-27T09:29:09.151Z,36.40
2023-01-27T09:31:36.575Z,24.10
2023-01-27T09:34:04.582Z,29.70
2023-01-27T09:36:33.733Z,23.60
2023-01-27T09:39:07.688Z,7.70
2023-01-27T09:41:44.106Z,1.00
2023-01-27T09:44:38.625Z,19.00
2023-01-27T09:47:05.858Z,18.80
2023-01-27T09:49:53.735Z,1.00
2023-01-27T09:52:48.978Z,1.00
2023-01-27T09:55:19.599Z,1.00
2023-01-27T09:57:46.967Z,1.00
2023-01-27T10:00:37.868Z,99.90
2023-01-27T10:03:23.756Z,1.00
2023-01-27T10:05:59.584Z,1.00
2023-01-27T10:09:03.951Z,1.00
2023-01-27T10:11:57.733Z,1.00
2023-01-27T10:14:58.267Z,1.00
2023-01-27T10:17:59.161Z,99.90
2023-01-27T10:21:08.157Z,1.00
2023-01-27T10:23:53.351Z,1.00
2023-01-27T10:26:23.938Z,1.00
2023-01-27T10:28:57.712Z,1.00
2023-01-27T10:31:49.188Z,1.00
2023-01-27T10:34:27.959Z,1.00
2023-01-27T10:37:01.526Z,1.00
2023-01-27T10:39:31.752Z,1.00
2023-01-27T10:42:29.901Z,1.00
2023-01-27T10:45:18.608Z,1.00
2023-01-27T10:48:14.122Z,1.00
2023-01-27T10:50:47.186Z,1.00
2023-01-27T10:53:34.101Z,1.00
2023-01-27T10:56:04.262Z,1.00
2023-01-27T10:58:46.497Z,1.00
2023-01-27T11:01:21.463Z,1.00
2023-01-27T11:03:56.367Z,1.00
2023-01-27T11:06:28.622Z,1.00
2023-01-27T11:09:12.829Z,1.00
2023-01-27T11:11:44.334Z,1.00
2023-01-27T11:14:25.914Z,1.00
2023-01-27T11:17:16.081Z,6.60
2023-01-27T11:20:03.246Z,1.00
2023-01-27T11:23:00.046Z,1.00
2023-01-27T11:25:37.225Z,1.00
2023-01-27T11:28:25.298Z,1.00
2023-01-27T11:31:19.475Z,1.00
2023-01-27T11:34:13.463Z,1.00
2023-01-27T11:36:41.086Z,1.00
2023-01-27T11:39:11.199Z,1.00
2023-01-27T11:41:43.747Z,1.00
2023-01-27T11:44:22.827Z,1.00
2023-01-27T11:46:51.227Z,10.90
2023-01-27T11:49:35.554Z,1.00
2023-01-27T11:52:27.261Z,7.40
2023-01-27T11:57:27.684Z,20.50
2023-01-27T12:00:05.475Z,1.00
2023-01-27T12:02:39.881Z,26.10
2023-01-27T12:05:09.372Z,39.30
2023-01-27T12:07:45.647Z,12.70
2023-01-27T12:10:32.938Z,8.30
2023-01-27T12:13:10.160Z,7.00
2023-01-27T12:15:47.869Z,23.30
2023-01-27T12:18:16.488Z,24.50
2023-01-27T12:20:48.971Z,27.60
2023-01-27T12:23:21.372Z,44.20
2023-01-27T12:25:55.626Z,41.70
2023-01-27T12:33:27.613Z,38.60
2023-01-27T12:35:59.696Z,56.40
2023-01-27T12:38:36.002Z,61.00
2023-01-27T12:41:06.952Z,65.50
2023-01-27T12:43:58.460Z,51.80
2023-01-27T12:46:27.682Z,60.80
2023-01-27T12:49:05.122Z,57.90
2023-01-27T12:51:45.654Z,60.60
2023-01-27T12:54:30.149Z,63.90
2023-01-27T12:57:06.560Z,47.60
2023-01-27T12:59:35.783Z,42.70
2023-01-27T13:02:19.833Z,25.50
2023-01-27T13:04:53.237Z,4.90
2023-01-27T13:07:28.061Z,20.70
2023-01-27T13:10:02.592Z,32.40
2023-01-27T13:12:35.364Z,13.80
2023-01-27T13:15:14.984Z,35.60
2023-01-27T13:17:45.937Z,40.00
2023-01-27T13:20:22.238Z,44.50
2023-01-27T13:22:58.244Z,32.20
2023-01-27T13:25:42.470Z,26.90
2023-01-27T13:28:15.653Z,58.80
2023-01-27T13:30:48.259Z,68.40
2023-01-27T13:33:21.256Z,75.90
2023-01-27T13:36:02.433Z,54.60
2023-01-27T13:38:42.211Z,77.80
2023-01-27T13:41:20.957Z,50.40
2023-01-27T13:44:05.741Z,64.50
2023-01-27T13:46:37.597Z,45.40
2023-01-27T13:49:25.198Z,69.70
2023-01-27T13:51:52.580Z,55.30
2023-01-27T13:54:19.756Z,68.70
2023-01-27T13:57:16.016Z,75.50
2023-01-27T13:59:59.204Z,53.70
2023-01-27T14:02:36.260Z,69.10
2023-01-27T14:05:37.344Z,65.20
2023-01-27T14:08:32.580Z,69.70
2023-01-27T14:11:08.674Z,75.30
2023-01-27T14:13:59.449Z,77.20
2023-01-27T14:16:34.098Z,72.20
2023-01-27T14:19:12.003Z,73.90
2023-01-27T14:21:58.902Z,78.60
2023-01-27T14:24:44.668Z,72.90
2023-01-27T14:29:52.612Z,73.80
2023-01-27T14:32:26.284Z,66.90
2023-01-27T14:35:05.987Z,72.00
2023-01-27T14:37:52.580Z,38.70
2023-01-27T14:40:20.173Z,59.70
2023-01-27T14:42:54.651Z,47.00
2023-01-27T14:45:28.137Z,74.10
2023-01-27T14:48:21.932Z,60.90
2023-01-27T14:51:07.832Z,72.20
2023-01-27T14:53:59.457Z,63.10
2023-01-27T14:56:47.101Z,39.40
2023-01-27T14:59:38.183Z,36.40
2023-01-27T15:02:45.914Z,59.30
2023-01-27T15:05:22.402Z,64.60
2023-01-27T15:08:37.002Z,72.70
2023-01-27T15:11:43.780Z,69.90
2023-01-27T15:14:14.040Z,81.80
2023-01-27T15:17:11.254Z,86.20
2023-01-27T15:20:01.117Z,79.90
2023-01-27T15:22:41.210Z,84.50
2023-01-27T15:25:29.747Z,59.10
2023-01-27T15:27:58.504Z,60.40
2023-01-27T15:30:34.515Z,89.80
2023-01-27T15:33:01.647Z,83.10
2023-01-27T15:35:33.788Z,83.70
2023-01-27T15:38:08.330Z,91.20
2023-01-27T15:41:12.205Z,90.00
2023-01-27T15:44:01.039Z,87.40
2023-01-27T15:46:37.415Z,70.70
2023-01-27T15:49:09.287Z,92.50
2023-01-27T15:51:37.463Z,96.10
2023-01-27T15:54:05.156Z,95.30
2023-01-27T15:56:46.864Z,93.30
2023-01-27T15:59:24.234Z,93.90
2023-01-27T16:02:14.797Z,94.40
2023-01-27T16:07:31.099Z,92.00
2023-01-27T16:09:59.932Z,91.70
2023-01-27T16:12:37.774Z,91.30
2023-01-27T16:15:31.750Z,90.20
2023-01-27T16:18:07.866Z,72.80
2023-01-27T16:20:43.504Z,85.00
2023-01-27T16:23:30.539Z,82.50
2023-01-27T16:26:30.144Z,84.40
2023-01-27T16:29:19.173Z,69.00
2023-01-27T16:31:52.280Z,68.20
2023-01-27T16:34:29.560Z,53.10
2023-01-27T16:37:15.335Z,50.90
2023-01-27T16:39:55.405Z,79.00
2023-01-27T16:42:48.660Z,83.40
2023-01-27T16:45:22.653Z,77.70
2023-01-27T16:47:55.650Z,79.30
2023-01-27T16:50:40.834Z,74.10
2023-01-27T16:53:23.759Z,75.60
2023-01-27T16:56:04.806Z,76.20
2023-01-27T16:58:45.625Z,78.20
2023-01-27T17:01:26.015Z,75.50
2023-01-27T17:04:04.878Z,74.70
2023-01-27T17:06:35.830Z,68.60
2023-01-27T17:11:33.158Z,46.50
2023-01-27T17:14:28.397Z,45.00
2023-01-27T17:17:05.527Z,48.30
2023-01-27T17:19:37.288Z,31.90
2023-01-27T17:22:07.366Z,52.80
2023-01-27T17:24:41.049Z,52.10
2023-01-27T17:27:20.149Z,27.30
2023-01-27T17:29:49.274Z,25.10
2023-01-27T17:32:31.394Z,13.80
2023-01-27T17:35:01.822Z,1.00
2023-01-27T17:37:33.131Z,1.00
2023-01-27T17:40:13.074Z,1.00
2023-01-27T17:42:40.944Z,1.00
2023-01-27T17:45:38.901Z,1.00
2023-01-27T17:48:06.487Z,1.00
2023-01-27T17:50:37.636Z,1.00
2023-01-27T17:53:10.481Z,1.00
2023-01-27T17:55:37.896Z,1.00
2023-01-27T17:58:20.642Z,1.00
2023-01-27T18:00:48.168Z,1.00
2023-01-27T18:03:30.329Z,1.00
2023-01-27T18:05:57.511Z,1.00
2023-01-27T18:08:24.959Z,1.00
2023-01-27T18:10:52.199Z,1.00
2023-01-27T18:13:19.663Z,1.00
2023-01-27T18:16:03.448Z,1.00
2023-01-27T18:18:33.443Z,1.00
2023-01-27T18:21:09.714Z,1.00
2023-01-27T18:23:49.124Z,1.00
2023-01-27T18:26:29.519Z,1.00
2023-01-27T18:29:06.458Z,1.00
2023-01-27T18:31:37.525Z,1.00
2023-01-27T18:34:08.275Z,1.00
2023-01-27T18:36:37.252Z,99.90
2023-01-27T18:39:28.277Z,1.00
2023-01-27T18:41:55.589Z,1.00
2023-01-27T18:44:27.389Z,1.00
2023-01-27T18:47:00.490Z,1.00
2023-01-27T18:49:30.998Z,1.00
2023-01-27T18:51:58.209Z,1.00
2023-01-27T18:54:25.965Z,1.00
2023-01-27T19:01:48.801Z,99.90
2023-01-27T19:04:16.311Z,1.00
2023-01-27T19:06:43.419Z,1.00
2023-01-27T19:09:11.082Z,1.00
2023-01-27T19:11:38.428Z,1.00
2023-01-27T19:14:05.732Z,1.00
2023-01-27T19:16:33.751Z,99.90
2023-01-27T19:19:02.101Z,1.00
2023-01-27T19:21:32.112Z,99.90
2023-01-27T19:26:27.670Z,99.90
2023-01-27T19:28:57.748Z,99.90
2023-01-27T19:31:25.166Z,99.90
2023-01-27T19:36:36.964Z,99.90
2023-01-27T19:39:16.967Z,99.90
2023-01-27T19:41:47.469Z,99.90
2023-01-27T19:44:15.672Z,99.90
2023-01-27T19:46:43.293Z,99.90
2023-01-27T19:49:16.936Z,99.90
2023-01-27T19:51:44.167Z,1.00
2023-01-27T19:54:11.995Z,99.90
2023-01-27T19:56:39.084Z,99.90
2023-01-27T19:59:06.976Z,99.90
2023-01-27T20:01:36.058Z,99.90
2023-01-27T20:04:03.553Z,99.90
2023-01-27T20:06:32.040Z,99.90
2023-01-27T20:09:03.703Z,99.90
2023-01-27T20:11:38.671Z,99.90
2023-01-27T20:14:12.716Z,99.90
2023-01-27T20:16:40.616Z,99.90
2023-01-27T20:24:03.952Z,99.90
2023-01-27T20:26:39.483Z,99.90
2023-01-27T20:29:06.962Z,99.90
2023-01-27T20:31:34.603Z,99.90
2023-01-27T20:36:29.593Z,99.90
2023-01-27T20:38:57.090Z,99.90
2023-01-27T20:41:24.692Z,99.90
2023-01-27T20:44:04.768Z,99.90
2023-01-27T20:46:31.855Z,99.90
2023-01-27T20:49:03.490Z,99.90
2023-01-27T20:51:30.790Z,99.90
2023-01-27T20:54:00.165Z,99.90
2023-01-27T20:56:27.421Z,99.90
2023-01-27T20:58:54.744Z,99.90
2023-01-27T21:01:23.704Z,99.90
2023-01-27T21:03:51.363Z,99.90
2023-01-27T21:06:22.336Z,99.90
2023-01-27T21:08:49.836Z,99.90
2023-01-27T21:11:19.651Z,99.90
2023-01-27T21:13:48.393Z,99.90
2023-01-27T21:16:15.558Z,99.90
2023-01-27T21:18:45.395Z,99.90
2023-01-27T21:21:28.325Z,99.90
2023-01-27T21:23:56.777Z,99.90
2023-01-27T21:26:24.582Z,99.90
2023-01-27T21:28:52.595Z,99.90
2023-01-27T21:31:21.885Z,99.90
2023-01-27T21:33:50.266Z,99.90
2023-01-27T21:36:18.641Z,99.90
2023-01-27T21:38:50.287Z,99.90
2023-01-27T21:41:37.846Z,99.90
2023-01-27T21:44:51.356Z,99.90
2023-01-27T21:47:19.747Z,99.90
2023-01-27T21:52:35.030Z,99.90
2023-01-27T21:55:06.285Z,99.90
2023-01-27T21:57:37.181Z,99.90
2023-01-27T22:00:07.889Z,99.90
2023-01-27T22:02:41.047Z,99.90
2023-01-27T22:05:10.381Z,99.90
2023-01-27T22:07:41.710Z,99.90
2023-01-27T22:10:19.567Z,99.90
2023-01-27T22:15:19.326Z,99.90
2023-01-27T22:17:46.818Z,99.90
2023-01-27T22:20:16.239Z,99.90
2023-01-27T22:22:45.080Z,99.90
2023-01-27T22:25:15.071Z,99.90
2023-01-27T22:27:43.199Z,99.90
2023-01-27T22:30:17.985Z,99.90
2023-01-27T22:32:46.620Z,99.90
2023-01-27T22:35:16.499Z,99.90
2023-01-27T22:37:44.818Z,99.90
2023-01-27T22:42:40.204Z,1.00
2023-01-27T22:45:08.875Z,1.00
2023-01-27T22:50:04.048Z,1.00
2023-01-27T22:54:59.196Z,1.00
2023-01-27T22:57:30.296Z,1.00
2023-01-27T22:59:58.803Z,1.00
2023-01-27T23:02:29.597Z,1.00
2023-01-27T23:04:57.588Z,1.00
2023-01-27T23:07:25.549Z,1.00
2023-01-27T23:12:22.743Z,1.00
2023-01-27T23:14:54.220Z,1.00
2023-01-27T23:17:21.278Z,1.00
2023-01-27T23:19:48.619Z,1.00
2023-01-27T23:22:15.730Z,1.00
2023-01-27T23:24:45.725Z,1.00
2023-01-27T23:29:40.576Z,1.00
2023-01-27T23:34:36.063Z,1.00
2023-01-27T23:37:03.348Z,1.00
2023-01-27T23:39:30.929Z,1.00
2023-01-27T23:41:57.934Z,1.00
2023-01-27T23:44:25.374Z,1.00
2023-01-27T23:46:52.753Z,1.00
2023-01-27T23:54:15.873Z,1.00
2023-01-27T23:56:42.912Z,1.00
2023-01-27T23:59:12.317Z,1.80
